Time;durP1;ratioP1;P1;durP2;ratioP2;P2;SDS_P1;SDS_P2;PMS_P1;PMS_P2;Temp;Humidity;BMP_temperature;BMP_pressure;BME280_temperature;BME280_humidity;BME280_pressure;Samples;Min_cycle;Max_cycle;Signal;HPM_P1;HPM_P2
2023/08/12 00:01:33;;;;;;;8.87;5.00;;;;;;;19.79;80.17;95407.38;5109501;28;20446;-77
2023/08/12 00:04:00;;;;;;;7.40;5.00;;;;;;;19.77;80.17;95404.06;5110530;28;20479;-77
2023/08/12 00:06:29;;;;;;;5.10;4.70;;;;;;;19.79;80.36;95410.88;5110027;28;20441;-76
2023/08/12 00:08:55;;;;;;;6.53;4.93;;;;;;;19.76;80.29;95403.22;5110262;28;20439;-77
2023/08/12 00:11:22;;;;;;;5.30;4.80;;;;;;;19.71;80.38;95394.94;5109879;28;20436;-77
2023/08/12 00:13:49;;;;;;;8.70;5.40;;;;;;;19.72;80.40;95399.25;5108238;28;20821;-78
2023/08/12 00:16:16;;;;;;;4.83;4.33;;;;;;;19.74;80.35;95402.59;5095919;28;20439;-78
2023/08/12 00:18:43;;;;;;;6.90;4.50;;;;;;;19.67;80.63;95398.97;5095694;28;20434;-77
2023/08/12 00:21:10;;;;;;;5.40;4.90;;;;;;;19.65;80.79;95400.94;5060622;28;20945;-77
2023/08/12 00:23:40;;;;;;;5.37;4.87;;;;;;;19.52;81.21;95395.31;5095772;28;20482;-79
2023/08/12 00:26:07;;;;;;;10.40;5.87;;;;;;;19.44;80.95;95395.34;5095576;28;20445;-78
2023/08/12 00:28:37;;;;;;;5.13;4.70;;;;;;;19.45;80.63;95405.00;5096131;28;20448;-76
2023/08/12 00:31:04;;;;;;;5.73;4.83;;;;;;;19.35;80.87;95391.03;5096694;28;20450;-78
2023/08/12 00:33:31;;;;;;;5.27;4.77;;;;;;;19.35;80.93;95399.84;5096006;28;20450;-78
2023/08/12 00:35:58;;;;;;;7.00;5.20;;;;;;;19.31;80.94;95395.88;5096169;28;20451;-79
2023/08/12 00:38:25;;;;;;;5.33;4.90;;;;;;;19.31;81.22;95395.88;5095778;28;20437;-77
2023/08/12 00:40:53;;;;;;;5.23;4.83;;;;;;;19.29;81.20;95397.06;5095820;28;20443;-77
2023/08/12 00:43:20;;;;;;;4.60;4.20;;;;;;;19.27;81.39;95402.56;5095510;28;20491;-76
2023/08/12 00:45:47;;;;;;;5.50;5.00;;;;;;;19.25;81.32;95401.91;5096110;28;20436;-78
2023/08/12 00:48:15;;;;;;;5.47;4.97;;;;;;;19.23;81.88;95403.91;5095674;28;20452;-77
2023/08/12 00:50:46;;;;;;;5.77;5.27;;;;;;;19.22;81.59;95401.41;5095874;28;20443;-78
2023/08/12 00:53:14;;;;;;;5.13;4.60;;;;;;;19.20;81.38;95404.25;5095876;28;20435;-77
2023/08/12 00:55:41;;;;;;;5.30;4.80;;;;;;;19.18;81.64;95400.94;5095553;28;20472;-76
2023/08/12 00:58:10;;;;;;;5.07;4.67;;;;;;;19.13;81.59;95392.63;5095457;28;20443;-79
2023/08/12 01:00:38;;;;;;;4.70;4.30;;;;;;;19.16;80.88;95392.28;5095412;28;20441;-75
2023/08/12 01:03:09;;;;;;;8.00;4.67;;;;;;;19.13;81.32;95398.78;5095508;28;20493;-78
2023/08/12 01:05:37;;;;;;;4.97;4.57;;;;;;;19.09;81.21;95392.13;5095467;28;20443;-77
2023/08/12 01:08:04;;;;;;;5.10;4.00;;;;;;;19.03;81.51;95384.81;5076387;28;20435;-75
2023/08/12 01:10:35;;;;;;;6.07;5.53;;;;;;;19.00;81.89;95401.13;5059923;28;20436;-75
2023/08/12 01:13:14;;;;;;;4.70;4.30;;;;;;;18.95;82.03;95384.00;5095105;28;20499;-77
2023/08/12 01:15:42;;;;;;;5.00;4.50;;;;;;;18.88;81.99;95391.84;5076470;28;20432;-78
2023/08/12 01:18:09;;;;;;;4.73;4.23;;;;;;;18.88;82.01;95391.84;5095328;28;20453;-77
2023/08/12 01:20:37;;;;;;;5.30;4.80;;;;;;;18.88;81.92;95383.88;5095132;28;20450;-76
2023/08/12 01:23:11;;;;;;;5.63;5.10;;;;;;;18.85;81.91;95385.03;5095172;28;20503;-78
2023/08/12 01:25:38;;;;;;;5.20;4.67;;;;;;;18.82;82.05;95381.88;5094461;28;20483;-78
2023/08/12 01:28:06;;;;;;;6.30;4.97;;;;;;;18.72;82.30;95384.69;5094450;28;20831;-77
2023/08/12 01:30:35;;;;;;;10.20;4.40;;;;;;;18.67;82.50;95380.88;5094839;28;20451;-76
2023/08/12 01:33:09;;;;;;;6.03;5.40;;;;;;;18.69;82.38;95384.22;5094890;28;20480;-77
2023/08/12 01:35:42;;;;;;;8.03;4.70;;;;;;;18.59;82.72;95379.03;5095528;28;20529;-77
2023/08/12 01:38:11;;;;;;;5.20;4.80;;;;;;;18.59;82.69;95376.38;5095168;28;20916;-77
2023/08/12 01:40:40;;;;;;;4.93;4.53;;;;;;;18.57;82.67;95381.88;5094922;28;20809;-77
2023/08/12 01:43:08;;;;;;;7.23;4.97;;;;;;;18.54;82.75;95376.06;5094207;28;20554;-77
2023/08/12 01:45:35;;;;;;;4.83;4.43;;;;;;;18.47;83.00;95375.88;5075502;28;20431;-76
2023/08/12 01:48:05;;;;;;;4.83;4.43;;;;;;;18.50;82.83;95375.56;5094707;28;20441;-78
2023/08/12 01:50:31;;;;;;;5.23;4.73;;;;;;;18.47;82.89;95370.56;5075729;28;20432;-77
2023/08/12 01:52:58;;;;;;;5.17;4.77;;;;;;;18.44;82.81;95373.56;5094786;28;20445;-78
2023/08/12 01:55:27;;;;;;;5.77;5.03;;;;;;;18.44;83.09;95378.88;5094611;28;20475;-77
2023/08/12 01:57:54;;;;;;;5.17;4.60;;;;;;;18.41;82.88;95381.84;5094379;28;20447;-77
2023/08/12 02:00:20;;;;;;;4.87;4.57;;;;;;;18.42;82.95;95375.56;5094157;28;20445;-78
2023/08/12 02:02:47;;;;;;;5.20;4.80;;;;;;;18.37;82.97;95380.53;5094024;28;20450;-78
2023/08/12 02:05:14;;;;;;;5.47;4.97;;;;;;;18.35;82.80;95377.22;5093799;28;20487;-78
2023/08/12 02:07:41;;;;;;;5.63;5.23;;;;;;;18.32;82.73;95380.22;5109069;28;20441;-77
2023/08/12 02:10:09;;;;;;;5.90;5.40;;;;;;;18.33;82.64;95376.56;5094556;28;20453;-77
2023/08/12 02:12:37;;;;;;;4.67;4.37;;;;;;;18.30;82.74;95384.84;5094351;28;20455;-78
2023/08/12 02:15:04;;;;;;;6.00;5.10;;;;;;;18.32;82.71;95382.88;5075502;28;20445;-77
2023/08/12 02:17:31;;;;;;;6.67;5.27;;;;;;;18.32;82.86;95379.38;5094287;28;20454;-77
2023/08/12 02:19:58;;;;;;;4.93;4.33;;;;;;;18.25;82.92;95382.69;5094351;28;20809;-76
2023/08/12 02:22:25;;;;;;;8.77;5.20;;;;;;;18.23;83.26;95384.69;5094039;28;20443;-77
2023/08/12 02:24:52;;;;;;;5.67;5.10;;;;;;;18.19;84.03;95380.69;5094625;28;20917;-77
2023/08/12 02:27:19;;;;;;;7.63;5.40;;;;;;;18.18;83.88;95386.16;5092510;28;20432;-76
2023/08/12 02:29:47;;;;;;;6.23;4.43;;;;;;;18.19;83.86;95393.13;5094166;28;20842;-77
2023/08/12 02:32:14;;;;;;;4.67;4.27;;;;;;;18.18;83.68;95389.66;5075416;28;20448;-77
2023/08/12 02:34:41;;;;;;;5.17;4.77;;;;;;;18.17;83.65;95395.13;5094098;28;20439;-77
2023/08/12 02:37:09;;;;;;;5.80;5.23;;;;;;;18.18;83.79;95400.28;5094116;28;20441;-78
2023/08/12 02:39:36;;;;;;;5.20;4.70;;;;;;;18.16;83.28;95388.16;5094532;28;20440;-76
2023/08/12 02:42:03;;;;;;;5.13;4.60;;;;;;;18.16;83.33;95393.47;5093664;28;20455;-77
2023/08/12 02:44:32;;;;;;;7.00;5.30;;;;;;;18.04;83.49;95394.78;5094150;28;20487;-77
2023/08/12 02:47:00;;;;;;;5.03;4.63;;;;;;;18.01;83.52;95401.25;5094136;28;20443;-78
2023/08/12 02:49:27;;;;;;;5.67;4.60;;;;;;;18.00;83.37;95404.91;5094259;28;20449;-77
2023/08/12 02:51:54;;;;;;;5.63;5.10;;;;;;;17.98;83.55;95406.06;5094323;28;20449;-77
2023/08/12 02:54:21;;;;;;;5.07;4.67;;;;;;;17.97;83.19;95399.09;5093988;28;20436;-75
2023/08/12 02:56:50;;;;;;;6.00;5.23;;;;;;;17.92;83.50;95408.34;5094856;28;20441;-78
2023/08/12 02:59:17;;;;;;;5.50;5.00;;;;;;;17.90;83.77;95402.38;5094618;28;20437;-77
2023/08/12 03:01:44;;;;;;;5.23;4.83;;;;;;;17.88;84.19;95407.00;5094204;28;20447;-77
2023/08/12 03:04:12;;;;;;;5.50;4.60;;;;;;;17.86;84.10;95401.03;5093565;28;20467;-78
2023/08/12 03:06:39;;;;;;;5.33;4.83;;;;;;;17.83;84.14;95404.03;5093170;28;20473;-76
2023/08/12 03:09:06;;;;;;;5.40;4.90;;;;;;;17.82;84.07;95409.50;5093102;28;20442;-79
2023/08/12 03:11:33;;;;;;;6.53;5.93;;;;;;;17.81;84.59;95411.31;5093321;28;20443;-77
2023/08/12 03:14:00;;;;;;;4.97;4.63;;;;;;;17.80;84.55;95414.97;5074160;28;20491;-77
2023/08/12 03:16:27;;;;;;;9.90;4.77;;;;;;;17.82;84.33;95417.47;5093432;28;20444;-78
2023/08/12 03:18:54;;;;;;;6.57;4.70;;;;;;;17.81;84.25;95408.66;5093459;28;20872;-78
2023/08/12 03:21:22;;;;;;;5.40;5.00;;;;;;;17.81;84.18;95416.63;5093335;28;20444;-76
2023/08/12 03:23:49;;;;;;;6.20;5.60;;;;;;;17.80;83.88;95414.13;5093371;28;20483;-77
2023/08/12 03:26:16;;;;;;;9.00;4.83;;;;;;;17.75;83.98;95411.97;5094289;28;20925;-77
2023/08/12 03:28:44;;;;;;;5.43;5.00;;;;;;;17.74;83.92;95404.16;5094425;28;20617;-78
2023/08/12 03:31:10;;;;;;;5.53;5.03;;;;;;;17.73;83.83;95411.31;5093457;28;20444;-75
2023/08/12 03:33:37;;;;;;;6.35;5.20;;;;;;;17.86;84.03;95414.31;5092703;28;20428;-78
2023/08/12 03:36:05;;;;;;;5.97;4.33;;;;;;;17.85;83.59;95415.31;5093396;28;20206;-77
2023/08/12 03:38:33;;;;;;;9.53;4.90;;;;;;;17.83;83.35;95419.94;5093338;28;20439;-77
2023/08/12 03:41:00;;;;;;;12.53;5.23;;;;;;;17.82;83.42;95418.28;5093884;28;20450;-77
2023/08/12 03:43:26;;;;;;;5.17;4.60;;;;;;;17.83;83.38;95425.25;5072352;28;20460;-79
2023/08/12 03:45:53;;;;;;;5.77;5.17;;;;;;;17.85;82.90;95417.97;5073174;28;20977;-77
2023/08/12 03:48:20;;;;;;;4.97;4.53;;;;;;;17.82;83.08;95422.78;5054509;28;20436;-77
2023/08/12 03:50:47;;;;;;;6.50;5.90;;;;;;;17.87;83.20;95426.59;5076265;28;20432;-77
2023/08/12 03:53:14;;;;;;;6.00;4.97;;;;;;;17.88;83.20;95428.25;5076848;28;20498;-78
2023/08/12 03:55:44;;;;;;;6.27;5.67;;;;;;;17.90;82.72;95431.59;5076298;28;20440;-77
2023/08/12 03:58:11;;;;;;;5.80;5.30;;;;;;;17.93;82.73;95427.81;5076542;28;20795;-77
2023/08/12 04:00:42;;;;;;;5.17;4.77;;;;;;;17.92;82.99;95424.28;5041504;28;20431;-78
2023/08/12 04:03:09;;;;;;;8.33;5.00;;;;;;;18.00;83.13;95425.31;5077005;28;20452;-77
2023/08/12 04:05:36;;;;;;;9.97;5.97;;;;;;;18.15;82.93;95426.34;5076559;28;20484;-77
2023/08/12 04:08:05;;;;;;;5.27;4.77;;;;;;;18.55;81.04;95421.09;5076469;28;20441;-78
2023/08/12 04:10:31;;;;;;;6.30;5.20;;;;;;;19.14;78.40;95419.06;5076449;28;20446;-77
2023/08/12 04:12:59;;;;;;;6.13;5.03;;;;;;;19.80;75.71;95412.53;5076500;28;20475;-78
2023/08/12 04:15:26;;;;;;;6.47;5.20;;;;;;;20.40;72.64;95419.88;5076332;28;20443;-78
2023/08/12 04:17:53;;;;;;;5.90;4.33;;;;;;;20.93;69.95;95420.78;5076634;28;20454;-77
2023/08/12 04:20:20;;;;;;;5.03;4.63;;;;;;;21.49;67.91;95421.25;5075813;28;20920;-77
2023/08/12 04:22:48;;;;;;;4.80;4.40;;;;;;;22.04;65.74;95427.13;5057639;28;20445;-77
2023/08/12 04:25:15;;;;;;;4.63;4.13;;;;;;;22.46;63.57;95429.03;5076457;28;21013;-77
2023/08/12 04:27:42;;;;;;;3.90;3.60;;;;;;;22.81;62.18;95428.16;5076184;28;20454;-78
2023/08/12 04:30:13;;;;;;;4.30;3.90;;;;;;;23.16;60.97;95436.28;5076204;28;20518;-78
2023/08/12 04:32:40;;;;;;;4.17;3.87;;;;;;;23.44;59.97;95428.25;5057702;28;20440;-76
2023/08/12 04:35:09;;;;;;;5.20;4.47;;;;;;;23.58;59.11;95429.19;5076312;28;20838;-77
2023/08/12 04:37:37;;;;;;;6.77;4.10;;;;;;;23.47;60.05;95428.69;5075981;28;20452;-77
2023/08/12 04:40:05;;;;;;;5.03;4.50;;;;;;;23.60;60.24;95424.44;5040619;28;20467;-78
2023/08/12 04:42:31;;;;;;;6.60;4.70;;;;;;;23.84;60.35;95428.50;5076130;28;20447;-77
2023/08/12 04:44:58;;;;;;;6.00;5.30;;;;;;;24.03;59.96;95431.28;5075354;28;20996;-78
2023/08/12 04:47:26;;;;;;;6.07;5.40;;;;;;;23.99;59.77;95434.53;5075779;28;20447;-78
2023/08/12 04:49:53;;;;;;;7.07;6.47;;;;;;;23.97;59.83;95426.69;5076074;28;20447;-77
2023/08/12 04:52:20;;;;;;;7.10;6.17;;;;;;;23.73;60.34;95427.22;5075533;28;20436;-77
2023/08/12 04:54:47;;;;;;;8.83;5.87;;;;;;;23.44;60.96;95430.94;5057368;28;20438;-78
2023/08/12 04:57:16;;;;;;;7.80;6.00;;;;;;;23.20;62.02;95440.25;5075557;28;20524;-77
2023/08/12 04:59:43;;;;;;;7.57;6.80;;;;;;;23.12;63.05;95440.34;5075629;28;20480;-77
2023/08/12 05:02:10;;;;;;;7.50;5.80;;;;;;;22.83;63.73;95436.00;5075019;28;20438;-77
2023/08/12 05:04:38;;;;;;;7.40;6.47;;;;;;;22.92;63.64;95429.50;5075401;28;20483;-77
2023/08/12 05:07:05;;;;;;;7.47;6.77;;;;;;;23.08;63.67;95431.06;5056636;28;20435;-79
2023/08/12 05:09:32;;;;;;;21.30;7.67;;;;;;;23.21;63.88;95433.84;5075155;28;20444;-77
2023/08/12 05:12:00;;;;;;;7.43;6.70;;;;;;;23.37;63.91;95433.53;5074735;28;20501;-78
2023/08/12 05:14:30;;;;;;;12.97;6.20;;;;;;;23.61;63.01;95439.50;5075127;28;20480;-75
2023/08/12 05:16:57;;;;;;;8.80;5.87;;;;;;;23.83;61.69;95438.41;5074684;28;20934;-76
2023/08/12 05:19:24;;;;;;;9.40;6.93;;;;;;;24.13;61.71;95438.13;5056062;28;20448;-76
2023/08/12 05:21:52;;;;;;;8.17;6.43;;;;;;;24.34;60.12;95438.84;5074711;28;20451;-76
2023/08/12 05:24:19;;;;;;;9.80;6.40;;;;;;;24.37;59.69;95437.63;5074276;28;20487;-77
2023/08/12 05:26:48;;;;;;;9.93;6.70;;;;;;;24.36;60.04;95438.66;5074320;28;20452;-76
2023/08/12 05:29:15;;;;;;;10.57;7.70;;;;;;;24.45;60.38;95437.44;5074730;28;20805;-76
2023/08/12 05:31:42;;;;;;;9.77;7.30;;;;;;;24.52;60.74;95440.94;5074776;28;20451;-76
2023/08/12 05:34:09;;;;;;;7.17;6.43;;;;;;;24.69;60.47;95439.56;5055786;28;20440;-76
2023/08/12 05:36:36;;;;;;;9.50;6.50;;;;;;;25.02;60.34;95445.00;5074316;28;20455;-75
2023/08/12 05:39:05;;;;;;;6.97;6.30;;;;;;;25.38;58.70;95442.91;5055340;28;20448;-77
2023/08/12 05:41:32;;;;;;;7.60;6.40;;;;;;;25.60;57.39;95449.72;5074559;28;20456;-76
2023/08/12 05:43:59;;;;;;;11.00;6.03;;;;;;;25.73;56.22;95451.56;5055980;28;20455;-76
2023/08/12 05:46:26;;;;;;;9.03;5.40;;;;;;;25.80;55.76;95453.22;5075239;28;20480;-76
2023/08/12 05:48:53;;;;;;;5.40;5.00;;;;;;;25.78;54.24;95449.94;5056262;28;20451;-74
2023/08/12 05:51:19;;;;;;;5.53;5.07;;;;;;;25.88;55.18;95444.09;5075171;28;20443;-74
2023/08/12 05:53:46;;;;;;;6.57;5.97;;;;;;;25.99;54.42;95437.22;5074774;28;20433;-76
2023/08/12 05:56:14;;;;;;;6.93;6.27;;;;;;;26.05;55.40;95439.09;5074506;28;20448;-79
2023/08/12 05:58:41;;;;;;;6.20;5.60;;;;;;;26.38;55.45;95439.81;5074361;28;20447;-78
2023/08/12 06:01:08;;;;;;;7.40;4.90;;;;;;;26.69;53.31;95440.88;5056234;28;20443;-77
2023/08/12 06:03:35;;;;;;;5.37;4.83;;;;;;;26.47;48.23;95429.59;5074615;28;20437;-79
2023/08/12 06:06:02;;;;;;;5.03;4.63;;;;;;;26.57;48.87;95432.66;5074789;28;20990;-77
2023/08/12 06:08:29;;;;;;;4.20;3.80;;;;;;;26.71;47.95;95430.72;5074570;28;20445;-77
2023/08/12 06:10:56;;;;;;;4.67;4.30;;;;;;;26.68;47.22;95428.47;5072568;28;20452;-77
2023/08/12 06:13:24;;;;;;;3.70;3.40;;;;;;;26.80;47.10;95432.91;5073737;28;20823;-76
2023/08/12 06:15:51;;;;;;;4.37;3.93;;;;;;;26.86;46.56;95417.75;5055828;28;20950;-77
2023/08/12 06:18:18;;;;;;;4.97;4.17;;;;;;;27.02;45.92;95419.13;5073999;28;20437;-76
2023/08/12 06:20:47;;;;;;;3.80;3.47;;;;;;;26.82;45.90;95413.84;5073518;28;20456;-76
2023/08/12 06:23:14;;;;;;;5.03;4.00;;;;;;;26.99;45.56;95420.41;5073729;28;20440;-74
2023/08/12 06:25:42;;;;;;;5.23;3.83;;;;;;;26.92;45.38;95421.47;5074143;28;20492;-77
2023/08/12 06:28:10;;;;;;;3.87;3.50;;;;;;;27.01;45.46;95418.31;5073705;28;20812;-77
2023/08/12 06:30:38;;;;;;;3.77;3.50;;;;;;;27.14;44.76;95412.81;5074121;28;20977;-76
2023/08/12 06:33:05;;;;;;;7.00;3.60;;;;;;;27.19;44.50;95408.66;5073534;28;20455;-76
2023/08/12 06:35:32;;;;;;;3.87;3.57;;;;;;;27.31;44.79;95407.69;5055167;28;20441;-76
2023/08/12 06:37:59;;;;;;;4.10;3.80;;;;;;;27.35;44.67;95403.50;5073954;28;20451;-76
2023/08/12 06:40:26;;;;;;;3.80;3.00;;;;;;;27.11;44.47;95402.47;5073410;28;20445;-75
2023/08/12 06:42:53;;;;;;;6.20;4.07;;;;;;;26.32;46.78;95402.97;5073902;28;20447;-76
2023/08/12 06:45:20;;;;;;;5.13;3.80;;;;;;;26.73;45.69;95393.63;5073585;28;20852;-76
2023/08/12 06:47:48;;;;;;;6.83;3.50;;;;;;;26.96;45.13;95399.25;5072651;28;20448;-76
2023/08/12 06:50:15;;;;;;;6.33;4.40;;;;;;;27.09;44.57;95391.09;5073078;28;20447;-76
2023/08/12 06:52:42;;;;;;;3.40;3.10;;;;;;;27.30;44.14;95391.75;5073074;28;20443;-77
2023/08/12 06:55:09;;;;;;;5.27;3.90;;;;;;;27.47;44.71;95382.06;5072967;28;20449;-76
2023/08/12 06:57:38;;;;;;;3.57;3.27;;;;;;;27.86;43.91;95390.78;5054541;28;20984;-78
2023/08/12 07:00:06;;;;;;;4.27;3.47;;;;;;;27.98;42.09;95392.50;5072856;28;20440;-77
2023/08/12 07:02:32;;;;;;;5.50;4.20;;;;;;;28.14;42.71;95393.75;5073162;28;20510;-77
2023/08/12 07:05:04;;;;;;;8.83;3.10;;;;;;;28.28;42.48;95389.03;5072503;28;20484;-77
2023/08/12 07:07:31;;;;;;;6.50;3.67;;;;;;;28.15;42.35;95390.00;5054025;28;20445;-78
2023/08/12 07:09:58;;;;;;;5.13;3.63;;;;;;;27.80;42.43;95387.13;5072835;28;20444;-76
2023/08/12 07:12:25;;;;;;;3.90;3.50;;;;;;;27.84;42.98;95385.63;5072373;28;20448;-77
2023/08/12 07:14:51;;;;;;;5.00;4.00;;;;;;;27.77;43.98;95384.88;5072651;28;20433;-74
2023/08/12 07:17:18;;;;;;;3.63;3.30;;;;;;;27.96;44.44;95383.81;5072903;28;20447;-76
2023/08/12 07:19:45;;;;;;;5.07;3.27;;;;;;;28.20;43.40;95384.75;5054902;28;20578;-78
2023/08/12 07:22:13;;;;;;;3.90;3.60;;;;;;;28.32;41.96;95376.72;5072947;28;20445;-78
2023/08/12 07:24:40;;;;;;;8.70;3.77;;;;;;;28.32;41.76;95377.53;5074035;28;20948;-78
2023/08/12 07:27:07;;;;;;;5.63;4.30;;;;;;;28.28;41.52;95384.47;5076723;28;20488;-76
2023/08/12 07:29:34;;;;;;;5.70;4.00;;;;;;;28.49;42.48;95379.63;5077105;28;20523;-75
2023/08/12 07:32:00;;;;;;;3.93;3.50;;;;;;;28.68;42.32;95383.91;5077601;28;20448;-78
2023/08/12 07:34:27;;;;;;;4.33;3.97;;;;;;;28.77;41.82;95381.69;5076852;28;20962;-77
2023/08/12 07:36:54;;;;;;;5.67;4.50;;;;;;;28.89;41.26;95372.59;5077095;28;20448;-79
2023/08/12 07:39:26;;;;;;;3.73;3.33;;;;;;;28.57;40.94;95377.41;5077932;28;20448;-78
2023/08/12 07:41:52;;;;;;;4.30;3.90;;;;;;;28.36;41.65;95377.94;5076966;28;20488;-77
2023/08/12 07:44:19;;;;;;;4.37;4.07;;;;;;;28.38;42.78;95373.97;5077017;28;20921;-77
2023/08/12 07:46:46;;;;;;;3.90;3.60;;;;;;;28.46;41.82;95372.81;5077039;28;20978;-77
2023/08/12 07:49:14;;;;;;;4.30;3.90;;;;;;;28.41;42.28;95371.84;5076527;28;20437;-77
2023/08/12 07:51:40;;;;;;;3.90;3.50;;;;;;;28.38;42.00;95365.84;5058690;28;20495;-77
2023/08/12 07:54:07;;;;;;;4.60;3.93;;;;;;;28.51;41.90;95364.00;5079376;28;20440;-77
2023/08/12 07:56:36;;;;;;;4.33;3.93;;;;;;;28.40;42.44;95370.19;5082141;28;20440;-77
2023/08/12 07:59:03;;;;;;;4.67;4.23;;;;;;;28.08;43.22;95356.91;5080182;28;20456;-78
2023/08/12 08:01:29;;;;;;;5.90;4.47;;;;;;;28.09;42.90;95350.44;5078104;28;20445;-79
2023/08/12 08:03:56;;;;;;;3.90;3.50;;;;;;;28.10;43.36;95356.66;5080225;28;20471;-77
2023/08/12 08:06:23;;;;;;;8.40;4.17;;;;;;;27.76;42.71;95350.84;5086106;28;20480;-77
2023/08/12 08:08:50;;;;;;;5.00;4.60;;;;;;;27.66;43.59;95353.25;5089282;28;20448;-76
2023/08/12 08:11:17;;;;;;;4.80;4.20;;;;;;;27.67;44.04;95349.50;5083654;28;20437;-78
2023/08/12 08:13:45;;;;;;;6.10;4.00;;;;;;;27.83;42.82;95356.16;5089721;28;20472;-77
2023/08/12 08:16:12;;;;;;;3.80;3.50;;;;;;;27.88;43.26;95364.41;5090551;28;20452;-78
2023/08/12 08:18:39;;;;;;;4.70;4.30;;;;;;;27.58;40.25;95348.94;5091529;28;20433;-78
2023/08/12 08:21:05;;;;;;;6.33;4.20;;;;;;;27.10;41.56;95351.50;5092302;28;20449;-78
2023/08/12 08:23:32;;;;;;;4.57;3.50;;;;;;;27.03;42.22;95356.94;5091018;28;20499;-78
2023/08/12 08:25:59;;;;;;;4.40;4.00;;;;;;;27.13;42.58;95356.44;5092463;28;20513;-78
2023/08/12 08:28:26;;;;;;;4.63;4.20;;;;;;;27.13;42.40;95359.13;5091252;28;20437;-77
2023/08/12 08:30:54;;;;;;;5.53;4.00;;;;;;;26.98;41.92;95354.06;5087152;28;20445;-77
2023/08/12 08:33:21;;;;;;;3.20;3.00;;;;;;;27.30;42.26;95346.75;5086967;28;20929;-77
2023/08/12 08:35:48;;;;;;;3.90;3.60;;;;;;;27.75;41.42;95350.00;5076379;28;20448;-77
2023/08/12 08:38:14;;;;;;;4.10;3.80;;;;;;;28.12;42.70;95347.28;5075966;28;20452;-78
2023/08/12 08:40:41;;;;;;;3.83;3.53;;;;;;;28.12;40.89;95347.28;5076077;28;20927;-78
2023/08/12 08:43:09;;;;;;;5.67;4.20;;;;;;;28.32;40.03;95349.72;5075788;28;20453;-76
2023/08/12 08:45:36;;;;;;;8.77;3.80;;;;;;;28.04;40.76;95347.59;5075657;28;20898;-78
2023/08/12 08:48:07;;;;;;;5.40;4.23;;;;;;;28.22;40.95;95346.72;5073578;28;20434;-77
2023/08/12 08:50:34;;;;;;;6.47;4.50;;;;;;;28.38;40.56;95344.25;5075166;28;20440;-77
2023/08/12 08:53:03;;;;;;;3.87;3.57;;;;;;;28.54;40.78;95336.53;5075391;28;20528;-77
2023/08/12 08:55:30;;;;;;;9.13;4.20;;;;;;;28.68;40.61;95340.69;5075401;28;20440;-78
2023/08/12 08:57:57;;;;;;;11.17;4.27;;;;;;;28.56;39.62;95334.44;5076008;28;20436;-77
2023/08/12 09:00:25;;;;;;;4.43;3.90;;;;;;;28.65;40.47;95331.19;5075422;28;21001;-77
2023/08/12 09:02:54;;;;;;;7.37;4.43;;;;;;;28.75;40.97;95329.78;5075442;28;20923;-76
2023/08/12 09:05:23;;;;;;;6.60;4.20;;;;;;;28.91;40.95;95326.41;5074995;28;20459;-78
2023/08/12 09:07:52;;;;;;;4.17;3.73;;;;;;;29.02;39.39;95328.31;5075673;28;20445;-79
2023/08/12 09:10:22;;;;;;;4.53;4.17;;;;;;;28.83;40.23;95324.84;5074944;28;20799;-78
2023/08/12 09:12:52;;;;;;;5.30;3.73;;;;;;;28.53;39.73;95302.50;5074897;28;20484;-78
2023/08/12 09:15:19;;;;;;;3.73;3.43;;;;;;;28.70;39.50;95311.56;5075027;28;20440;-77
2023/08/12 09:17:46;;;;;;;3.97;3.50;;;;;;;28.76;39.58;95316.03;5074627;28;20449;-77
2023/08/12 09:20:13;;;;;;;3.70;3.40;;;;;;;28.85;39.25;95311.97;5075129;28;20444;-76
2023/08/12 09:22:41;;;;;;;4.90;4.20;;;;;;;28.92;39.11;95306.47;5075069;28;20458;-78
2023/08/12 09:25:10;;;;;;;4.73;4.30;;;;;;;28.88;38.61;95308.78;5074692;28;20994;-77
2023/08/12 09:27:37;;;;;;;5.17;4.53;;;;;;;28.82;39.02;95309.69;5074755;28;20468;-78
2023/08/12 09:30:05;;;;;;;8.10;3.90;;;;;;;28.74;39.26;95304.66;5074833;28;20496;-78
2023/08/12 09:32:34;;;;;;;4.27;3.97;;;;;;;28.89;39.22;95299.63;5056451;28;20441;-78
2023/08/12 09:35:02;;;;;;;4.13;3.63;;;;;;;28.81;37.38;95281.03;5039017;28;20433;-78
2023/08/12 09:37:29;;;;;;;5.40;4.90;;;;;;;28.73;39.30;95291.38;5074714;28;20437;-78
2023/08/12 09:39:58;;;;;;;4.90;4.17;;;;;;;28.49;38.34;95287.81;5074639;28;20441;-76
2023/08/12 09:42:25;;;;;;;3.70;3.50;;;;;;;28.44;38.45;95285.81;5073967;28;20476;-78
2023/08/12 09:44:52;;;;;;;3.87;3.57;;;;;;;28.34;39.42;95289.09;5074001;28;20440;-77
2023/08/12 09:47:19;;;;;;;4.23;3.90;;;;;;;28.06;39.12;95280.75;5073304;28;20480;-77
2023/08/12 09:49:45;;;;;;;7.60;4.10;;;;;;;28.16;39.87;95281.00;5055471;28;20444;-77
2023/08/12 09:52:13;;;;;;;3.83;3.43;;;;;;;28.13;39.55;95272.56;5074061;28;20453;-76
2023/08/12 09:54:39;;;;;;;4.67;4.10;;;;;;;27.95;39.32;95274.22;5073861;28;20448;-78
2023/08/12 09:57:12;;;;;;;3.80;3.50;;;;;;;28.10;38.69;95275.72;5039141;28;20456;-77
2023/08/12 09:59:39;;;;;;;4.07;3.70;;;;;;;28.00;40.50;95276.25;5074620;28;20484;-77
2023/08/12 10:02:07;;;;;;;5.23;3.50;;;;;;;27.92;39.71;95273.88;5074343;28;20448;-75
2023/08/12 10:04:41;;;;;;;4.10;3.80;;;;;;;28.08;39.17;95265.16;5074154;28;20490;-77
2023/08/12 10:07:10;;;;;;;5.00;3.33;;;;;;;28.01;40.08;95272.50;5073885;28;21119;-76
2023/08/12 10:09:38;;;;;;;3.43;3.13;;;;;;;28.12;40.27;95269.03;5038614;28;20437;-77
2023/08/12 10:12:07;;;;;;;7.80;3.60;;;;;;;28.17;38.42;95261.06;5073931;28;20445;-77
2023/08/12 10:14:35;;;;;;;4.20;3.80;;;;;;;28.07;38.93;95256.22;5074067;28;20535;-77
2023/08/12 10:17:02;;;;;;;16.10;4.23;;;;;;;28.11;40.73;95250.38;5074004;28;20444;-78
2023/08/12 10:19:29;;;;;;;3.80;3.50;;;;;;;27.94;40.44;95261.78;5055598;28;20444;-77
2023/08/12 10:21:59;;;;;;;3.63;3.33;;;;;;;27.72;40.34;95253.38;5055027;28;20474;-77
2023/08/12 10:24:27;;;;;;;4.23;3.93;;;;;;;27.73;39.39;95256.88;5073248;28;20437;-77
2023/08/12 10:26:54;;;;;;;3.67;3.40;;;;;;;27.80;39.07;95248.72;5073720;28;20484;-77
2023/08/12 10:29:24;;;;;;;4.23;3.90;;;;;;;27.97;38.88;95249.72;5073653;28;20810;-77
2023/08/12 10:31:51;;;;;;;4.47;4.07;;;;;;;28.10;38.82;95244.16;5073341;28;20799;-77
2023/08/12 10:34:22;;;;;;;3.87;3.50;;;;;;;28.24;39.43;95247.47;5073127;28;20437;-77
2023/08/12 10:36:49;;;;;;;4.20;3.90;;;;;;;28.37;38.36;95242.72;5072950;28;20528;-77
2023/08/12 10:39:16;;;;;;;3.70;3.40;;;;;;;28.46;37.42;95240.50;5073737;28;20437;-78
2023/08/12 10:41:52;;;;;;;4.10;3.70;;;;;;;28.63;36.59;95237.94;5073262;28;20451;-77
2023/08/12 10:44:23;;;;;;;2.97;2.77;;;;;;;28.70;38.96;95233.25;5054828;28;20468;-78
2023/08/12 10:46:55;;;;;;;3.63;3.27;;;;;;;28.67;38.62;95222.91;5073767;28;20480;-77
2023/08/12 10:49:23;;;;;;;4.07;3.67;;;;;;;28.63;37.84;95227.97;5073302;28;20935;-77
2023/08/12 10:51:51;;;;;;;3.43;3.10;;;;;;;28.46;36.85;95228.88;5073772;28;20441;-77
2023/08/12 10:54:21;;;;;;;4.50;3.00;;;;;;;28.48;37.43;95224.06;5038993;28;20791;-77
2023/08/12 10:57:08;;;;;;;3.33;3.03;;;;;;;28.18;37.23;95214.13;5074039;28;20437;-78
2023/08/12 10:59:55;;;;;;;3.20;2.90;;;;;;;28.30;36.98;95215.00;5072790;28;20789;-77
2023/08/12 11:02:40;;;;;;;7.70;3.17;;;;;;;28.30;37.41;95215.00;5073189;28;20499;-77
2023/08/12 11:05:09;;;;;;;10.50;3.40;;;;;;;28.29;36.22;95207.94;5073431;28;20452;-78
2023/08/12 11:07:40;;;;;;;3.60;3.30;;;;;;;28.32;36.97;95210.19;5072775;28;20481;-77
2023/08/12 11:10:16;;;;;;;5.63;3.20;;;;;;;28.37;37.33;95207.63;5072763;28;20472;-78
2023/08/12 11:12:51;;;;;;;3.07;2.87;;;;;;;28.43;36.36;95195.06;5072820;28;20476;-77
2023/08/12 11:15:20;;;;;;;3.60;3.30;;;;;;;28.59;36.52;95197.06;5073056;28;20472;-76
2023/08/12 11:17:48;;;;;;;2.87;2.67;;;;;;;28.60;34.85;95192.47;5072541;28;20866;-78
2023/08/12 11:20:15;;;;;;;7.57;3.17;;;;;;;28.24;33.97;95196.19;5073115;28;20972;-78
2023/08/12 11:22:45;;;;;;;2.53;2.30;;;;;;;28.15;36.18;95193.00;5073298;28;20445;-78
2023/08/12 11:25:14;;;;;;;5.03;2.90;;;;;;;28.15;37.17;95198.41;5073473;28;20440;-78
2023/08/12 11:27:44;;;;;;;3.47;3.03;;;;;;;28.29;36.56;95197.16;5073199;28;20851;-77
2023/08/12 11:30:13;;;;;;;2.90;2.67;;;;;;;28.29;35.54;95197.16;5072847;28;20436;-77
2023/08/12 11:32:42;;;;;;;6.73;2.90;;;;;;;28.20;34.64;95190.44;5072982;28;20511;-77
2023/08/12 11:35:11;;;;;;;3.10;2.90;;;;;;;28.28;36.99;95187.41;5073014;28;20947;-78
2023/08/12 11:37:39;;;;;;;5.60;3.23;;;;;;;28.44;34.51;95201.28;5037450;28;20506;-78